Time;durP1;ratioP1;P1;durP2;ratioP2;P2;SDS_P1;SDS_P2;PMS_P1;PMS_P2;Temp;Humidity;BMP_temperature;BMP_pressure;BME280_temperature;BME280_humidity;BME280_pressure;Samples;Min_cycle;Max_cycle;Signal;HPM_P1;HPM_P2
2021/11/24 00:01:41;;;;;;;15.30;10.85;;;;;;;6.26;75.34;94005.72;5111465;28;20044;-40
2021/11/24 00:04:07;;;;;;;26.70;12.98;;;;;;;6.26;75.44;94011.91;5111675;28;20672;-40
2021/11/24 00:06:32;;;;;;;15.75;10.57;;;;;;;6.34;75.54;94012.13;5111545;28;20039;-41
2021/11/24 00:08:57;;;;;;;16.38;10.93;;;;;;;6.32;75.41;94020.13;5111576;28;20024;-40
2021/11/24 00:11:23;;;;;;;13.20;9.07;;;;;;;6.18;75.41;93999.25;5106454;28;20027;-41
2021/11/24 00:13:48;;;;;;;22.85;9.75;;;;;;;6.35;74.95;94013.63;5091246;28;20036;-41
2021/11/24 00:16:14;;;;;;;18.17;11.35;;;;;;;6.38;74.93;94024.34;5090953;28;20085;-41
2021/11/24 00:18:39;;;;;;;12.90;9.05;;;;;;;6.37;75.23;94020.09;5094436;28;20011;-41
2021/11/24 00:21:07;;;;;;;17.38;11.00;;;;;;;6.31;74.79;94022.13;5111118;28;20067;-42
2021/11/24 00:23:33;;;;;;;12.18;8.77;;;;;;;6.28;74.77;94028.59;5111161;28;20567;-41
2021/11/24 00:25:58;;;;;;;14.75;9.98;;;;;;;6.26;74.62;94025.63;5111219;28;20127;-41
2021/11/24 00:28:24;;;;;;;13.48;8.90;;;;;;;6.28;74.96;94028.59;5110851;28;20096;-41
2021/11/24 00:30:49;;;;;;;14.07;9.32;;;;;;;6.38;75.40;94023.56;5111505;28;20128;-41
2021/11/24 00:33:15;;;;;;;15.98;10.32;;;;;;;6.43;74.61;94029.03;5110749;28;20023;-41
2021/11/24 00:35:40;;;;;;;13.90;9.55;;;;;;;6.31;74.89;94002.16;5111115;28;20028;-41
2021/11/24 00:38:06;;;;;;;16.85;10.32;;;;;;;6.49;74.31;94027.00;5111357;28;20492;-41
2021/11/24 00:40:31;;;;;;;13.15;9.02;;;;;;;6.39;74.83;94023.06;5111115;28;20571;-41
2021/11/24 00:42:57;;;;;;;15.35;9.70;;;;;;;6.35;73.78;94024.59;5111213;28;20453;-41
2021/11/24 00:45:22;;;;;;;13.90;8.80;;;;;;;6.37;73.46;94025.56;5110830;28;20031;-41
2021/11/24 00:47:49;;;;;;;11.60;8.23;;;;;;;6.34;73.51;94031.34;5110824;28;20088;-44
2021/11/24 00:50:15;;;;;;;12.90;8.52;;;;;;;6.23;73.36;94010.22;5110971;28;20058;-43
2021/11/24 00:52:40;;;;;;;10.52;7.22;;;;;;;6.29;73.48;94032.09;5110987;28;20404;-44
2021/11/24 00:55:06;;;;;;;9.52;6.82;;;;;;;6.24;74.26;94032.91;5110945;28;20192;-43
2021/11/24 00:57:31;;;;;;;17.13;11.43;;;;;;;6.32;74.22;94031.09;5110465;28;20555;-44
2021/11/24 00:59:57;;;;;;;17.88;11.98;;;;;;;6.43;73.87;94026.28;5110736;28;20034;-43
2021/11/24 01:02:22;;;;;;;16.42;10.95;;;;;;;6.17;74.43;94000.53;5110365;28;20488;-44
2021/11/24 01:04:48;;;;;;;14.77;10.60;;;;;;;6.25;74.75;94020.66;5110316;28;20066;-42
2021/11/24 01:07:14;;;;;;;15.63;9.70;;;;;;;6.26;75.40;94030.38;5109411;28;20073;-42
2021/11/24 01:09:39;;;;;;;17.20;10.18;;;;;;;6.23;75.25;94020.41;5089251;28;20043;-43
2021/11/24 01:12:06;;;;;;;14.77;10.65;;;;;;;6.33;74.90;94024.34;5088264;28;20094;-42
2021/11/24 01:14:31;;;;;;;19.75;13.30;;;;;;;6.21;75.43;94029.16;5090239;28;20080;-42
2021/11/24 01:16:57;;;;;;;14.20;9.50;;;;;;;6.28;75.49;94031.34;5089838;28;20457;-42
2021/11/24 01:19:22;;;;;;;15.63;9.82;;;;;;;6.27;75.59;94026.38;5098801;28;20096;-41
2021/11/24 01:21:48;;;;;;;12.98;9.18;;;;;;;6.30;75.33;94026.13;5110224;28;20071;-41
2021/11/24 01:24:13;;;;;;;19.65;11.40;;;;;;;6.33;75.17;94027.09;5110256;28;20027;-41
2021/11/24 01:26:39;;;;;;;17.27;11.52;;;;;;;6.17;75.96;94028.69;5110423;28;20034;-41
2021/11/24 01:29:05;;;;;;;14.35;10.40;;;;;;;6.28;75.71;94027.88;5110177;28;20038;-41
2021/11/24 01:31:30;;;;;;;18.50;11.20;;;;;;;6.17;75.91;94023.22;5110253;28;20023;-41
2021/11/24 01:33:56;;;;;;;17.27;10.60;;;;;;;6.21;75.94;94022.94;5109658;28;20488;-41
2021/11/24 01:36:21;;;;;;;16.05;10.23;;;;;;;6.09;76.16;94020.25;5109764;28;20035;-41
2021/11/24 01:38:47;;;;;;;14.45;10.38;;;;;;;6.20;76.44;94021.41;5110212;28;20024;-42
2021/11/24 01:41:13;;;;;;;17.60;9.65;;;;;;;6.16;76.35;94016.22;5109821;28;20035;-42
2021/11/24 01:43:39;;;;;;;14.13;9.05;;;;;;;6.22;75.88;94014.19;5109871;28;20062;-41
2021/11/24 01:46:04;;;;;;;18.27;10.65;;;;;;;6.11;76.11;94017.72;5110138;28;20059;-43
2021/11/24 01:48:30;;;;;;;16.70;10.93;;;;;;;6.01;76.67;94008.31;5108681;28;20028;-41
2021/11/24 01:50:58;;;;;;;15.48;9.90;;;;;;;6.12;76.42;94018.47;5110281;28;20031;-42
2021/11/24 01:53:24;;;;;;;15.25;10.15;;;;;;;6.22;75.80;94018.91;5109352;28;20422;-41
2021/11/24 01:55:49;;;;;;;18.70;11.43;;;;;;;6.16;75.75;94018.97;5110221;28;20102;-41
2021/11/24 01:58:15;;;;;;;14.90;10.13;;;;;;;6.08;75.80;94013.28;5109910;28;20115;-41
2021/11/24 02:00:41;;;;;;;13.68;9.43;;;;;;;5.97;75.78;93994.16;5108997;28;20041;-41
2021/11/24 02:03:06;;;;;;;14.32;9.35;;;;;;;6.15;75.86;94016.72;5109953;28;20015;-42
2021/11/24 02:05:33;;;;;;;16.23;10.38;;;;;;;5.93;75.58;93979.94;5091168;28;20051;-43
2021/11/24 02:07:59;;;;;;;16.60;10.30;;;;;;;6.00;76.42;94003.31;5089756;28;20032;-42
2021/11/24 02:10:25;;;;;;;13.23;8.77;;;;;;;5.98;76.53;93998.34;5089239;28;20412;-43
2021/11/24 02:12:51;;;;;;;14.27;9.25;;;;;;;6.06;76.33;93999.31;5089488;28;20094;-42
2021/11/24 02:15:17;;;;;;;20.40;11.07;;;;;;;6.12;75.88;93993.81;5089507;28;20060;-43
2021/11/24 02:17:43;;;;;;;11.85;8.32;;;;;;;6.16;75.55;94002.50;5089756;28;20478;-42
2021/11/24 02:20:16;;;;;;;12.18;8.80;;;;;;;6.16;75.57;94010.72;5103630;28;20649;-42
2021/11/24 02:22:42;;;;;;;12.82;8.80;;;;;;;6.17;75.90;94000.53;5112042;28;20020;-42
2021/11/24 02:25:08;;;;;;;15.38;9.85;;;;;;;5.94;75.72;93981.44;5113055;28;20027;-44
2021/11/24 02:27:33;;;;;;;14.88;10.00;;;;;;;6.20;75.53;94007.72;5113021;28;20084;-42
2021/11/24 02:29:59;;;;;;;13.43;9.10;;;;;;;6.18;75.19;93997.25;5113890;28;20114;-42
2021/11/24 02:32:24;;;;;;;14.27;8.88;;;;;;;6.11;75.58;94009.50;5113271;28;20476;-43
2021/11/24 02:34:50;;;;;;;15.65;10.35;;;;;;;5.98;75.97;94001.09;5113689;28;20027;-42
2021/11/24 02:37:15;;;;;;;17.02;9.75;;;;;;;6.01;75.97;94005.59;5113569;28;20458;-42
2021/11/24 02:39:41;;;;;;;17.35;10.50;;;;;;;6.01;75.98;93993.88;5113470;28;20446;-43
2021/11/24 02:42:06;;;;;;;12.20;9.05;;;;;;;6.01;75.54;93999.34;5113241;28;20118;-41
2021/11/24 02:44:36;;;;;;;12.02;9.10;;;;;;;6.05;75.72;93997.09;5113160;28;20031;-41
2021/11/24 02:47:10;;;;;;;12.82;9.32;;;;;;;6.00;75.65;94004.06;5113325;28;20023;-41
2021/11/24 02:49:38;;;;;;;16.10;9.68;;;;;;;5.97;75.80;93999.63;5113291;28;20031;-41
2021/11/24 02:52:04;;;;;;;12.77;7.95;;;;;;;6.02;75.39;94003.59;5113313;28;20019;-41
2021/11/24 02:54:30;;;;;;;14.15;9.73;;;;;;;6.07;75.29;94000.06;5112787;27;20131;-41
2021/11/24 02:56:58;;;;;;;13.02;8.75;;;;;;;6.08;75.42;94010.53;5113282;28;20033;-41
2021/11/24 02:59:24;;;;;;;14.85;9.77;;;;;;;6.11;75.29;94006.78;5112504;28;20081;-42
2021/11/24 03:01:50;;;;;;;14.40;9.90;;;;;;;5.85;76.15;94005.63;5093967;27;20036;-42
2021/11/24 03:04:16;;;;;;;17.20;10.90;;;;;;;6.03;75.98;94000.34;5092445;28;20110;-42
2021/11/24 03:06:41;;;;;;;15.80;10.43;;;;;;;6.00;75.83;94012.31;5092366;28;20031;-42
2021/11/24 03:09:07;;;;;;;15.20;10.48;;;;;;;5.91;76.03;94007.09;5092640;28;20047;-42
2021/11/24 03:11:32;;;;;;;17.05;11.50;;;;;;;5.78;76.50;94017.84;5092192;28;20444;-43
2021/11/24 03:13:58;;;;;;;14.75;11.07;;;;;;;5.85;76.74;94016.59;5092285;28;20103;-43
2021/11/24 03:16:23;;;;;;;15.15;10.57;;;;;;;5.87;76.32;94023.06;5092072;28;20028;-42
2021/11/24 03:18:49;;;;;;;16.67;11.15;;;;;;;5.86;76.80;94015.38;5096663;28;20035;-41
2021/11/24 03:21:15;;;;;;;15.48;9.57;;;;;;;5.94;76.22;94016.31;5111946;28;20047;-43
2021/11/24 03:23:40;;;;;;;16.00;10.88;;;;;;;5.92;76.33;94016.06;5112181;28;20023;-42
2021/11/24 03:26:05;;;;;;;27.75;10.50;;;;;;;5.93;76.17;94026.53;5112823;28;20525;-41
2021/11/24 03:28:31;;;;;;;16.33;10.77;;;;;;;5.86;76.10;94023.59;5112362;28;20023;-42
2021/11/24 03:30:56;;;;;;;16.92;10.90;;;;;;;5.86;76.23;94026.31;5112569;28;20072;-42
2021/11/24 03:33:22;;;;;;;19.73;11.90;;;;;;;5.84;76.88;94029.56;5111631;28;20416;-42
2021/11/24 03:35:48;;;;;;;17.80;11.40;;;;;;;5.84;76.67;94040.53;5111984;28;20536;-42
2021/11/24 03:38:13;;;;;;;17.05;11.23;;;;;;;5.90;76.98;94037.75;5112119;27;20030;-42
2021/11/24 03:40:39;;;;;;;17.45;11.90;;;;;;;5.93;76.86;94023.78;5112028;28;20035;-45
2021/11/24 03:43:04;;;;;;;17.70;11.23;;;;;;;6.02;76.24;94033.75;5112288;28;20051;-43
2021/11/24 03:45:33;;;;;;;19.08;12.15;;;;;;;5.88;76.81;94027.31;5112045;28;20027;-42
2021/11/24 03:48:00;;;;;;;20.23;11.98;;;;;;;5.88;76.91;94034.78;5112197;28;20027;-43
2021/11/24 03:50:26;;;;;;;16.98;11.70;;;;;;;5.99;76.52;94035.50;5111926;28;20036;-42
2021/11/24 03:52:51;;;;;;;17.20;11.00;;;;;;;5.99;76.01;94032.75;5112138;28;20081;-42
2021/11/24 03:55:17;;;;;;;17.95;12.65;;;;;;;5.85;76.78;94042.00;5111776;28;20112;-43
2021/11/24 03:57:44;;;;;;;16.27;11.35;;;;;;;5.98;76.43;94044.19;5095765;27;20070;-43
2021/11/24 04:00:13;;;;;;;17.10;10.93;;;;;;;5.99;76.06;94040.97;5091390;28;20030;-42
2021/11/24 04:02:39;;;;;;;16.70;10.52;;;;;;;5.89;76.28;94036.28;5091481;28;20481;-42
2021/11/24 04:05:06;;;;;;;16.40;10.68;;;;;;;5.91;76.08;94040.00;5091204;28;20039;-43
2021/11/24 04:07:31;;;;;;;16.35;11.05;;;;;;;5.73;77.01;94042.53;5091494;28;20027;-43
2021/11/24 04:09:57;;;;;;;16.20;10.95;;;;;;;5.69;77.31;94050.25;5091440;28;20542;-42
2021/11/24 04:12:22;;;;;;;17.85;10.63;;;;;;;5.81;77.06;94041.50;5091363;28;20420;-41
2021/11/24 04:14:48;;;;;;;15.73;10.32;;;;;;;5.90;76.73;94054.22;5090968;28;20050;-42
2021/11/24 04:17:15;;;;;;;24.35;14.30;;;;;;;5.94;76.85;94047.22;5090976;28;20046;-42
2021/11/24 04:19:40;;;;;;;26.42;15.20;;;;;;;5.90;76.79;94054.22;5102402;28;20115;-44
2021/11/24 04:22:06;;;;;;;20.05;12.05;;;;;;;5.97;76.33;94048.97;5111188;28;20023;-42
2021/11/24 04:24:33;;;;;;;18.23;12.20;;;;;;;5.75;76.03;94015.38;5111081;28;20489;-43
2021/11/24 04:26:59;;;;;;;17.20;11.63;;;;;;;6.05;75.41;94060.88;5110812;28;20069;-42
2021/11/24 04:29:24;;;;;;;17.23;11.32;;;;;;;5.99;75.35;94062.91;5110961;28;20106;-43
2021/11/24 04:31:50;;;;;;;17.05;11.02;;;;;;;5.95;74.94;94043.25;5110999;28;20019;-43
2021/11/24 04:34:15;;;;;;;17.95;12.30;;;;;;;6.20;74.81;94065.28;5111105;28;20062;-42
2021/11/24 04:36:41;;;;;;;20.08;12.10;;;;;;;6.04;75.78;94066.88;5111086;28;20092;-42
2021/11/24 04:39:06;;;;;;;18.17;11.75;;;;;;;6.11;75.86;94069.81;5107238;28;20416;-42
2021/11/24 04:41:32;;;;;;;19.42;10.30;;;;;;;5.97;75.60;94043.47;5110833;28;20034;-42
2021/11/24 04:43:57;;;;;;;16.38;10.65;;;;;;;6.11;75.43;94066.31;5109316;28;20034;-42
2021/11/24 04:46:23;;;;;;;17.50;11.43;;;;;;;6.06;75.79;94072.59;5111095;28;20028;-42
2021/11/24 04:48:49;;;;;;;20.50;12.32;;;;;;;6.13;75.82;94067.31;5111125;28;20028;-42
2021/11/24 04:51:14;;;;;;;18.08;10.38;;;;;;;6.18;75.48;94071.28;5110645;28;20046;-42
2021/11/24 04:53:40;;;;;;;17.40;10.55;;;;;;;6.09;75.40;94072.31;5097405;28;20024;-43
2021/11/24 04:56:06;;;;;;;15.40;10.27;;;;;;;6.10;75.30;94075.81;5090467;28;20020;-42
2021/11/24 04:58:31;;;;;;;18.58;12.95;;;;;;;6.13;75.44;94072.81;5090590;28;20024;-42
2021/11/24 05:00:57;;;;;;;17.75;11.25;;;;;;;6.00;75.43;94069.84;5090093;28;20103;-42
2021/11/24 05:03:23;;;;;;;17.42;11.13;;;;;;;5.94;75.74;94066.41;5090090;28;20052;-42
2021/11/24 05:05:48;;;;;;;21.98;13.63;;;;;;;5.93;75.33;94084.06;5089994;28;20066;-42
2021/11/24 05:08:14;;;;;;;18.77;13.15;;;;;;;5.97;75.37;94081.84;5090580;28;20028;-42
2021/11/24 05:10:40;;;;;;;18.55;11.57;;;;;;;5.91;75.36;94078.34;5090079;28;20466;-41
2021/11/24 05:13:08;;;;;;;18.02;11.63;;;;;;;5.73;76.23;94083.63;5090121;28;20023;-42
2021/11/24 05:15:38;;;;;;;17.13;11.53;;;;;;;5.87;75.83;94086.09;5089974;28;20462;-42
2021/11/24 05:18:11;;;;;;;22.80;13.65;;;;;;;5.91;75.61;94092.06;5089967;28;20036;-42
2021/11/24 05:20:38;;;;;;;27.58;16.20;;;;;;;5.82;75.81;94092.31;5109558;28;20102;-42
2021/11/24 05:23:04;;;;;;;21.70;14.20;;;;;;;5.81;75.92;94093.56;5110027;28;20057;-42
2021/11/24 05:25:32;;;;;;;29.45;18.42;;;;;;;5.66;76.02;94084.88;5110545;28;20051;-42
2021/11/24 05:27:58;;;;;;;24.02;15.90;;;;;;;5.49;76.91;94086.16;5110054;28;20035;-42
2021/11/24 05:30:23;;;;;;;21.13;12.73;;;;;;;5.44;77.25;94075.94;5110158;28;20032;-41
2021/11/24 05:32:49;;;;;;;19.13;13.32;;;;;;;5.54;77.66;94110.06;5109886;28;20027;-42
2021/11/24 05:35:20;;;;;;;17.48;11.27;;;;;;;5.70;77.41;94109.28;5096895;28;20028;-41
2021/11/24 05:37:46;;;;;;;27.35;13.00;;;;;;;5.89;76.61;94107.53;5089921;28;20105;-41
2021/11/24 05:40:12;;;;;;;17.48;10.75;;;;;;;5.74;76.49;94102.28;5096435;28;20019;-42
2021/11/24 05:42:39;;;;;;;17.00;11.82;;;;;;;5.90;75.63;94115.25;5101937;28;20019;-41
2021/11/24 05:45:42;;;;;;;18.52;10.88;;;;;;;5.89;75.96;94115.75;5110247;28;20050;-41
2021/11/24 05:48:03;;;;;;;19.05;10.65;;;;;;;5.90;75.73;94100.78;5107553;28;20043;-47
2021/11/24 05:50:30;;;;;;;16.60;10.20;;;;;;;5.93;74.53;94125.19;5108899;28;20074;-47
2021/11/24 05:52:55;;;;;;;21.88;11.95;;;;;;;5.75;75.39;94112.00;5109828;28;20032;-49
2021/11/24 05:55:22;;;;;;;24.13;14.38;;;;;;;5.82;75.57;94121.72;5106387;28;20028;-44
2021/11/24 05:57:47;;;;;;;68.68;36.63;;;;;;;5.83;75.79;94131.41;5110868;28;20030;-45
2021/11/24 06:00:14;;;;;;;54.40;30.50;;;;;;;5.82;76.06;94130.69;5112283;28;20020;-44
2021/11/24 06:02:39;;;;;;;36.53;20.60;;;;;;;5.78;75.92;94113.72;5111768;28;20030;-43
2021/11/24 06:05:06;;;;;;;51.38;27.38;;;;;;;5.82;76.12;94133.44;5111616;28;20031;-44
2021/11/24 06:07:31;;;;;;;62.10;31.20;;;;;;;5.84;75.94;94139.19;5111535;28;20110;-45
2021/11/24 06:09:57;;;;;;;34.83;19.92;;;;;;;6.07;75.45;94140.63;5111717;28;20102;-41
2021/11/24 06:12:22;;;;;;;42.80;27.10;;;;;;;5.96;74.88;94137.91;5111680;28;20447;-41
2021/11/24 06:14:48;;;;;;;26.98;17.67;;;;;;;5.94;74.78;94147.88;5111291;28;20810;-41
2021/11/24 06:17:13;;;;;;;24.65;15.43;;;;;;;5.98;74.83;94149.09;5111153;28;20034;-41
2021/11/24 06:19:39;;;;;;;22.50;13.57;;;;;;;6.24;74.22;94153.53;5110842;28;20451;-45
2021/11/24 06:22:04;;;;;;;18.20;12.10;;;;;;;6.24;73.63;94156.28;5111569;28;20031;-44
2021/11/24 06:24:30;;;;;;;18.60;13.45;;;;;;;6.28;73.80;94160.22;5110890;28;20030;-43
2021/11/24 06:26:55;;;;;;;20.25;11.70;;;;;;;6.39;73.72;94159.47;5106244;27;20532;-41
2021/11/24 06:29:21;;;;;;;17.65;10.75;;;;;;;6.46;73.68;94158.91;5108862;28;20036;-42
2021/11/24 06:31:47;;;;;;;17.38;11.25;;;;;;;6.40;73.47;94167.19;5110931;28;20031;-42
2021/11/24 06:34:12;;;;;;;16.60;10.35;;;;;;;6.54;72.83;94168.13;5102825;28;20032;-44
2021/11/24 06:36:37;;;;;;;16.67;11.68;;;;;;;6.58;72.70;94168.63;5090275;28;20078;-43
2021/11/24 06:39:03;;;;;;;18.33;14.00;;;;;;;6.63;73.02;94171.31;5090213;28;20172;-43
2021/11/24 06:41:28;;;;;;;14.32;10.10;;;;;;;6.63;72.67;94181.53;5096643;28;20338;-43
2021/11/24 06:43:54;;;;;;;15.23;10.57;;;;;;;6.67;72.32;94173.81;5105813;28;20532;-44
2021/11/24 06:46:20;;;;;;;17.90;13.52;;;;;;;6.73;71.66;94174.53;5109855;28;20185;-41
2021/11/24 06:48:45;;;;;;;18.02;12.85;;;;;;;6.80;71.77;94179.47;5110017;28;20413;-43
2021/11/24 06:51:11;;;;;;;16.58;11.88;;;;;;;6.85;72.05;94184.94;5109361;28;20020;-41
2021/11/24 06:53:37;;;;;;;18.52;12.13;;;;;;;6.89;71.96;94187.41;5108252;28;20183;-43
2021/11/24 06:56:02;;;;;;;24.15;13.93;;;;;;;7.04;71.27;94182.34;5099876;28;20023;-43
2021/11/24 06:58:28;;;;;;;18.20;12.85;;;;;;;7.10;70.50;94190.56;5109355;28;20107;-41
2021/11/24 07:00:53;;;;;;;31.30;18.20;;;;;;;7.16;71.00;94185.78;5103332;28;20485;-42
2021/11/24 07:03:19;;;;;;;24.30;14.23;;;;;;;7.00;70.64;94183.84;5105947;28;20045;-42
2021/11/24 07:05:44;;;;;;;23.15;12.30;;;;;;;7.04;71.06;94192.59;5109948;28;20118;-42
2021/11/24 07:08:10;;;;;;;17.30;11.77;;;;;;;6.96;71.40;94192.38;5108641;28;20488;-43
2021/11/24 07:10:36;;;;;;;27.13;11.93;;;;;;;6.96;71.35;94181.41;5109929;27;20035;-43
2021/11/24 07:13:02;;;;;;;26.02;12.68;;;;;;;7.15;71.41;94190.50;5109865;27;20031;-44
2021/11/24 07:15:27;;;;;;;16.90;10.70;;;;;;;7.09;71.41;94192.56;5110052;28;20087;-43
2021/11/24 07:17:53;;;;;;;18.48;12.25;;;;;;;7.20;70.71;94187.00;5109311;27;20039;-43
2021/11/24 07:20:19;;;;;;;21.52;11.73;;;;;;;7.24;70.52;94187.47;5109454;28;20421;-44
2021/11/24 07:22:44;;;;;;;20.88;11.32;;;;;;;7.30;70.73;94192.91;5109951;28;20055;-44
2021/11/24 07:25:11;;;;;;;14.15;9.63;;;;;;;7.21;70.52;94188.47;5109802;28;20034;-45
2021/11/24 07:27:37;;;;;;;18.35;10.85;;;;;;;7.30;70.68;94192.91;5109396;28;20092;-44
2021/11/24 07:30:04;;;;;;;14.00;10.00;;;;;;;7.33;70.54;94189.16;5109598;27;20075;-45
2021/11/24 07:32:29;;;;;;;27.77;16.17;;;;;;;7.26;70.61;94182.22;5109619;28;20028;-44
2021/11/24 07:34:55;;;;;;;17.92;10.63;;;;;;;7.37;71.03;94195.88;5109406;28;20482;-45
2021/11/24 07:37:21;;;;;;;21.67;13.98;;;;;;;7.09;71.38;94198.03;5105846;28;20062;-44
2021/11/24 07:39:46;;;;;;;19.05;13.25;;;;;;;7.26;72.04;94198.69;5109905;28;20412;-44
2021/11/24 07:42:12;;;;;;;24.70;17.30;;;;;;;7.40;71.79;94194.88;5109261;28;20035;-44
2021/11/24 07:44:37;;;;;;;22.50;15.30;;;;;;;7.43;72.09;94196.56;5109510;27;20024;-44
2021/11/24 07:47:03;;;;;;;16.38;11.48;;;;;;;7.45;71.57;94191.31;5109522;28;20047;-44
2021/11/24 07:49:29;;;;;;;12.77;10.07;;;;;;;7.52;71.49;94199.00;5109300;28;20031;-44
2021/11/24 07:51:54;;;;;;;16.13;10.50;;;;;;;7.51;71.63;94178.28;5109218;28;20055;-43
2021/11/24 07:54:20;;;;;;;17.77;11.27;;;;;;;7.71;71.35;94201.13;5108007;28;20035;-43
2021/11/24 07:56:45;;;;;;;17.17;12.35;;;;;;;7.78;71.07;94201.31;5108845;27;20526;-44
2021/11/24 07:59:11;;;;;;;15.95;11.73;;;;;;;7.74;69.12;94202.84;5109234;28;20027;-44
2021/11/24 08:01:36;;;;;;;20.55;10.50;;;;;;;7.65;69.74;94198.41;5109111;28;20058;-43
2021/11/24 08:04:02;;;;;;;17.00;11.00;;;;;;;7.52;70.49;94201.75;5106956;28;20278;-42
2021/11/24 08:06:28;;;;;;;14.02;9.88;;;;;;;7.50;71.01;94198.78;5088461;28;20513;-43
2021/11/24 08:08:53;;;;;;;12.68;9.82;;;;;;;7.46;71.34;94194.81;5088527;28;20795;-44
2021/11/24 08:11:19;;;;;;;16.33;10.32;;;;;;;7.44;70.78;94206.31;5088738;28;20500;-45
2021/11/24 08:13:44;;;;;;;18.08;11.52;;;;;;;7.51;70.90;94205.75;5088486;28;20024;-44
2021/11/24 08:16:10;;;;;;;14.55;10.10;;;;;;;7.55;70.22;94205.50;5088204;28;20080;-44
2021/11/24 08:18:35;;;;;;;18.40;10.82;;;;;;;7.56;70.73;94213.22;5090736;28;20023;-45
2021/11/24 08:21:01;;;;;;;17.08;10.98;;;;;;;7.50;71.39;94209.00;5108100;28;20433;-44
2021/11/24 08:23:26;;;;;;;17.25;10.80;;;;;;;7.25;72.42;94221.19;5108684;27;20019;-44
2021/11/24 08:25:52;;;;;;;18.70;11.55;;;;;;;7.20;73.41;94208.97;5108526;27;20496;-43
2021/11/24 08:28:17;;;;;;;22.48;13.13;;;;;;;7.28;73.20;94217.41;5102447;28;20039;-44
2021/11/24 08:30:43;;;;;;;15.25;10.75;;;;;;;7.38;72.74;94215.84;5090691;28;20173;-45
2021/11/24 08:33:09;;;;;;;22.95;11.65;;;;;;;7.41;72.49;94217.56;5097518;28;20067;-44
2021/11/24 08:35:34;;;;;;;20.95;13.30;;;;;;;7.23;73.22;94221.69;5095825;28;20062;-45
2021/11/24 08:38:00;;;;;;;21.33;11.38;;;;;;;7.36;73.34;94221.84;5086215;28;20024;-44
2021/11/24 08:40:25;;;;;;;17.95;11.95;;;;;;;7.13;73.37;94219.72;5086000;28;20028;-44
2021/11/24 08:42:51;;;;;;;19.13;12.57;;;;;;;7.06;74.07;94218.28;5101634;28;20731;-45
2021/11/24 08:45:17;;;;;;;22.13;14.23;;;;;;;6.92;74.40;94213.88;5102077;28;20047;-44
2021/11/24 08:47:43;;;;;;;16.45;11.63;;;;;;;6.72;74.64;94203.22;5091099;28;20111;-44
2021/11/24 08:50:12;;;;;;;16.52;10.65;;;;;;;7.07;74.31;94217.03;5090920;28;20055;-43
2021/11/24 08:52:38;;;;;;;15.18;10.90;;;;;;;7.25;74.63;94216.44;5092657;28;20039;-44
2021/11/24 08:55:05;;;;;;;19.17;10.95;;;;;;;7.28;74.54;94215.41;5095104;28;20424;-43
2021/11/24 08:57:30;;;;;;;17.42;10.85;;;;;;;7.36;75.26;94223.84;5105852;28;20032;-43
2021/11/24 08:59:56;;;;;;;15.68;9.88;;;;;;;7.49;73.79;94211.00;5105433;28;20091;-43
2021/11/24 09:02:25;;;;;;;16.00;10.50;;;;;;;7.40;74.57;94191.38;5106126;28;20035;-43
2021/11/24 09:04:51;;;;;;;17.20;11.18;;;;;;;7.51;74.60;94205.03;5107391;28;20031;-43
2021/11/24 09:07:16;;;;;;;16.08;11.30;;;;;;;7.21;75.14;94207.69;5107329;28;20023;-43
2021/11/24 09:09:42;;;;;;;16.42;11.43;;;;;;;7.39;75.30;94211.84;5107810;28;20031;-44
2021/11/24 09:12:08;;;;;;;19.98;11.70;;;;;;;7.46;74.90;94212.03;5107363;28;20533;-44
2021/11/24 09:14:34;;;;;;;20.38;13.27;;;;;;;7.41;76.23;94196.34;5107609;28;20059;-43
2021/11/24 09:16:59;;;;;;;16.13;11.82;;;;;;;7.57;75.54;94213.97;5107828;28;20073;-43
2021/11/24 09:19:25;;;;;;;18.58;12.13;;;;;;;7.59;76.19;94203.22;5097408;28;20031;-43
2021/11/24 09:21:51;;;;;;;18.35;13.02;;;;;;;7.72;75.97;94208.84;5087404;28;20449;-44
2021/11/24 09:24:22;;;;;;;17.00;12.65;;;;;;;7.86;75.34;94212.50;5087427;28;20635;-44
2021/11/24 09:26:59;;;;;;;18.50;13.20;;;;;;;8.05;75.19;94210.59;5087071;28;20382;-44
2021/11/24 09:29:25;;;;;;;20.67;14.45;;;;;;;8.15;73.04;94206.22;5087090;28;20103;-46
2021/11/24 09:31:55;;;;;;;16.70;10.85;;;;;;;7.93;72.49;94200.94;5085918;28;20024;-44
2021/11/24 09:34:22;;;;;;;6.18;4.88;;;;;;;7.73;73.42;94204.88;5087069;28;20023;-43
2021/11/24 09:36:48;;;;;;;3.40;2.83;;;;;;;7.42;72.90;94203.34;5086793;28;20512;-44
2021/11/24 09:39:14;;;;;;;2.55;2.30;;;;;;;7.24;74.62;94205.94;5104632;28;20118;-45
2021/11/24 09:41:44;;;;;;;2.78;2.30;;;;;;;7.19;75.43;94207.47;5107321;28;20027;-43
2021/11/24 09:44:11;;;;;;;2.50;2.28;;;;;;;7.09;74.74;94200.78;5107135;28;20038;-44
2021/11/24 09:46:37;;;;;;;4.25;2.85;;;;;;;6.99;75.42;94199.59;5107078;28;20027;-43
2021/11/24 09:49:04;;;;;;;2.90;2.70;;;;;;;6.99;75.59;94205.09;5107120;28;20058;-44
2021/11/24 09:51:33;;;;;;;3.83;2.70;;;;;;;6.88;75.82;94200.41;5105073;28;20031;-44
2021/11/24 09:54:01;;;;;;;3.22;2.78;;;;;;;6.87;76.22;94201.66;5106975;28;20067;-44
2021/11/24 09:56:26;;;;;;;4.40;3.33;;;;;;;6.92;77.01;94204.88;5106811;28;20039;-43
2021/11/24 09:58:52;;;;;;;4.50;3.03;;;;;;;6.89;76.77;94207.38;5105629;28;20061;-44
2021/11/24 10:01:17;;;;;;;3.00;2.50;;;;;;;6.89;75.49;94203.88;5106883;28;20055;-43
2021/11/24 10:03:43;;;;;;;2.25;2.00;;;;;;;6.82;74.72;94199.66;5106928;28;20431;-44
2021/11/24 10:06:09;;;;;;;2.78;2.38;;;;;;;6.71;75.56;94201.75;5105701;28;20040;-41
2021/11/24 10:08:35;;;;;;;2.13;1.92;;;;;;;6.52;75.74;94195.34;5107539;28;20028;-42
2021/11/24 10:11:01;;;;;;;2.97;2.50;;;;;;;6.64;76.14;94197.53;5107773;28;20028;-45
2021/11/24 10:13:27;;;;;;;2.78;2.08;;;;;;;6.54;75.62;94206.53;5107555;28;20038;-46
2021/11/24 10:15:56;;;;;;;3.90;2.50;;;;;;;6.46;76.35;94200.81;5107669;28;20046;-46
2021/11/24 10:18:24;;;;;;;2.75;2.55;;;;;;;6.47;76.79;94198.84;5102855;28;20032;-46
2021/11/24 10:21:06;;;;;;;3.00;2.70;;;;;;;6.56;77.78;94201.31;5106638;28;20051;-47
2021/11/24 10:23:40;;;;;;;2.13;1.95;;;;;;;6.53;76.32;94191.31;5106738;28;20020;-45
2021/11/24 10:26:34;;;;;;;2.67;2.45;;;;;;;6.45;76.16;94195.84;5098847;28;20046;-46
2021/11/24 10:29:02;;;;;;;5.53;3.25;;;;;;;6.42;76.22;94196.84;5086520;28;20501;-45
2021/11/24 10:31:46;;;;;;;4.47;3.67;;;;;;;6.40;77.13;94194.59;5089737;28;20024;-45
2021/11/24 10:34:27;;;;;;;3.40;3.10;;;;;;;6.31;77.36;94185.91;5108788;28;20051;-46
2021/11/24 10:37:00;;;;;;;3.30;2.53;;;;;;;6.37;76.78;94189.38;5109366;28;20107;-47
2021/11/24 10:39:27;;;;;;;3.60;3.30;;;;;;;6.18;75.87;94169.25;5108910;28;20032;-46
2021/11/24 10:42:10;;;;;;;2.83;2.45;;;;;;;6.44;75.90;94183.38;5109130;28;20031;-47
2021/11/24 10:44:36;;;;;;;2.92;2.63;;;;;;;6.59;75.73;94181.06;5113344;28;20155;-46
2021/11/24 10:47:03;;;;;;;3.35;2.90;;;;;;;6.51;75.72;94174.63;5112672;27;20072;-45
2021/11/24 10:49:51;;;;;;;5.38;3.05;;;;;;;6.35;75.36;94148.00;5112755;28;20548;-45
2021/11/24 10:52:26;;;;;;;4.50;2.88;;;;;;;6.64;74.23;94174.81;5109337;28;20043;-43
2021/11/24 10:55:17;;;;;;;3.33;3.03;;;;;;;6.64;74.28;94172.06;5092300;28;20028;-45
2021/11/24 10:57:59;;;;;;;5.88;3.90;;;;;;;6.74;74.38;94174.03;5092199;28;20054;-45
2021/11/24 11:00:33;;;;;;;5.80;4.03;;;;;;;6.65;74.41;94166.06;5092037;28;20476;-47
2021/11/24 11:02:59;;;;;;;4.25;3.75;;;;;;;6.64;74.48;94158.34;5090839;28;20051;-46
2021/11/24 11:05:25;;;;;;;5.65;4.78;;;;;;;6.53;74.94;94161.91;5091879;28;20482;-45
2021/11/24 11:07:50;;;;;;;5.53;4.93;;;;;;;6.49;75.15;94152.44;5091812;28;20024;-45
2021/11/24 11:10:26;;;;;;;6.82;4.65;;;;;;;6.40;75.82;94158.19;5091667;28;20534;-49
2021/11/24 11:12:59;;;;;;;5.22;4.18;;;;;;;6.47;74.56;94149.47;5091216;28;20040;-44
2021/11/24 11:15:29;;;;;;;4.72;4.00;;;;;;;6.39;74.17;94153.97;5091448;28;20032;-45
2021/11/24 11:17:57;;;;;;;6.82;5.78;;;;;;;6.17;76.22;94154.06;5091189;28;20035;-50
2021/11/24 11:20:26;;;;;;;10.50;6.40;;;;;;;6.21;77.08;94157.28;5108803;28;20139;-46
2021/11/24 11:23:01;;;;;;;9.40;6.72;;;;;;;6.23;77.41;94163.00;5111603;28;20040;-46
2021/11/24 11:25:27;;;;;;;8.77;6.45;;;;;;;6.22;76.78;94154.03;5112031;28;20089;-45
2021/11/24 11:27:53;;;;;;;10.57;6.18;;;;;;;6.17;75.21;94145.81;5112106;28;20031;-46